sensor_id;sensor_type;location;lat;lon;timestamp;pressure;altitude;pressure_sealevel;temperature;humidity
16613;BME280;8419;52.358;9.752;2023-04-10T00:01:17;101776.00;;;16.94;34.23
16613;BME280;8419;52.358;9.752;2023-04-10T00:04:02;101777.00;;;16.91;34.26
16613;BME280;8419;52.358;9.752;2023-04-10T00:06:48;101773.00;;;16.87;34.30
16613;BME280;8419;52.358;9.752;2023-04-10T00:09:34;101778.00;;;16.89;34.30
16613;BME280;8419;52.358;9.752;2023-04-10T00:12:19;101784.00;;;16.78;34.48
16613;BME280;8419;52.358;9.752;2023-04-10T00:15:07;101788.00;;;16.78;34.46
16613;BME280;8419;52.358;9.752;2023-04-10T00:17:56;101785.00;;;16.77;34.48
16613;BME280;8419;52.358;9.752;2023-04-10T00:20:41;101779.00;;;16.72;34.53
16613;BME280;8419;52.358;9.752;2023-04-10T00:23:27;101771.00;;;16.69;34.58
16613;BME280;8419;52.358;9.752;2023-04-10T00:26:16;101769.00;;;16.69;34.59
16613;BME280;8419;52.358;9.752;2023-04-10T00:29:02;101776.00;;;16.69;34.57
16613;BME280;8419;52.358;9.752;2023-04-10T00:31:47;101759.00;;;16.65;34.67
16613;BME280;8419;52.358;9.752;2023-04-10T00:34:33;101757.00;;;16.48;34.90
16613;BME280;8419;52.358;9.752;2023-04-10T00:37:19;101752.00;;;16.47;34.96
16613;BME280;8419;52.358;9.752;2023-04-10T00:40:08;101749.00;;;16.52;34.83
16613;BME280;8419;52.358;9.752;2023-04-10T00:42:53;101743.00;;;16.49;34.88
16613;BME280;8419;52.358;9.752;2023-04-10T00:45:39;101740.00;;;16.47;34.87
16613;BME280;8419;52.358;9.752;2023-04-10T00:48:26;101739.00;;;16.42;34.96
16613;BME280;8419;52.358;9.752;2023-04-10T00:51:11;101744.00;;;16.43;34.95
16613;BME280;8419;52.358;9.752;2023-04-10T00:53:59;101749.00;;;16.37;35.04
16613;BME280;8419;52.358;9.752;2023-04-10T00:56:46;101745.00;;;16.42;34.96
16613;BME280;8419;52.358;9.752;2023-04-10T00:59:32;101751.00;;;16.35;35.02
16613;BME280;8419;52.358;9.752;2023-04-10T01:02:18;101749.00;;;16.34;35.06
16613;BME280;8419;52.358;9.752;2023-04-10T01:05:05;101744.00;;;16.31;35.10
16613;BME280;8419;52.358;9.752;2023-04-10T01:08:11;101749.00;;;16.27;35.15
16613;BME280;8419;52.358;9.752;2023-04-10T01:11:03;101754.00;;;16.21;35.29
16613;BME280;8419;52.358;9.752;2023-04-10T01:13:54;101752.00;;;16.22;35.23
16613;BME280;8419;52.358;9.752;2023-04-10T01:16:47;101754.00;;;16.21;35.25
16613;BME280;8419;52.358;9.752;2023-04-10T01:19:57;101754.00;;;16.23;35.24
16613;BME280;8419;52.358;9.752;2023-04-10T01:22:56;101753.00;;;16.24;35.19
16613;BME280;8419;52.358;9.752;2023-04-10T01:25:55;101762.00;;;16.19;35.26
16613;BME280;8419;52.358;9.752;2023-04-10T01:28:53;101757.00;;;16.13;35.30
16613;BME280;8419;52.358;9.752;2023-04-10T01:31:45;101757.00;;;16.16;35.27
16613;BME280;8419;52.358;9.752;2023-04-10T01:34:38;101757.00;;;16.10;35.35
16613;BME280;8419;52.358;9.752;2023-04-10T01:37:28;101749.00;;;16.09;35.37
16613;BME280;8419;52.358;9.752;2023-04-10T01:40:16;101761.00;;;16.06;35.43
16613;BME280;8419;52.358;9.752;2023-04-10T01:43:06;101761.00;;;16.06;35.41
16613;BME280;8419;52.358;9.752;2023-04-10T01:45:55;101757.00;;;16.04;35.45
16613;BME280;8419;52.358;9.752;2023-04-10T01:48:41;101754.00;;;16.02;35.46
16613;BME280;8419;52.358;9.752;2023-04-10T01:51:29;101754.00;;;16.02;35.46
16613;BME280;8419;52.358;9.752;2023-04-10T01:54:16;101751.00;;;16.00;35.52
16613;BME280;8419;52.358;9.752;2023-04-10T01:57:04;101753.00;;;15.98;35.54
16613;BME280;8419;52.358;9.752;2023-04-10T01:59:50;101745.00;;;15.98;35.57
16613;BME280;8419;52.358;9.752;2023-04-10T02:02:36;101744.00;;;15.95;35.58
16613;BME280;8419;52.358;9.752;2023-04-10T02:05:23;101738.00;;;15.93;35.61
16613;BME280;8419;52.358;9.752;2023-04-10T02:08:17;101741.00;;;15.91;35.64
16613;BME280;8419;52.358;9.752;2023-04-10T02:11:12;101740.00;;;15.91;35.62
16613;BME280;8419;52.358;9.752;2023-04-10T02:14:00;101732.00;;;15.79;35.82
16613;BME280;8419;52.358;9.752;2023-04-10T02:16:49;101734.00;;;15.77;35.82
16613;BME280;8419;52.358;9.752;2023-04-10T02:19:37;101724.00;;;15.78;35.82
16613;BME280;8419;52.358;9.752;2023-04-10T02:22:24;101730.00;;;15.78;35.79
16613;BME280;8419;52.358;9.752;2023-04-10T02:25:10;101722.00;;;15.74;35.88
16613;BME280;8419;52.358;9.752;2023-04-10T02:27:56;101716.00;;;15.73;35.87
16613;BME280;8419;52.358;9.752;2023-04-10T02:30:41;101717.00;;;15.72;35.87
16613;BME280;8419;52.358;9.752;2023-04-10T02:33:27;101716.00;;;15.67;35.94
16613;BME280;8419;52.358;9.752;2023-04-10T02:36:12;101709.00;;;15.66;35.95
16613;BME280;8419;52.358;9.752;2023-04-10T02:38:58;101707.00;;;15.71;35.86
16613;BME280;8419;52.358;9.752;2023-04-10T02:41:43;101712.00;;;15.69;35.90
16613;BME280;8419;52.358;9.752;2023-04-10T02:44:29;101708.00;;;15.69;35.88
16613;BME280;8419;52.358;9.752;2023-04-10T02:47:14;101716.00;;;15.76;35.75
16613;BME280;8419;52.358;9.752;2023-04-10T02:50:00;101703.00;;;15.72;35.82
16613;BME280;8419;52.358;9.752;2023-04-10T02:52:45;101705.00;;;15.62;35.97
16613;BME280;8419;52.358;9.752;2023-04-10T02:55:31;101701.00;;;15.68;35.87
16613;BME280;8419;52.358;9.752;2023-04-10T02:58:16;101704.00;;;15.68;35.88
16613;BME280;8419;52.358;9.752;2023-04-10T03:01:01;101697.00;;;15.65;35.90
16613;BME280;8419;52.358;9.752;2023-04-10T03:03:47;101700.00;;;15.67;35.86
16613;BME280;8419;52.358;9.752;2023-04-10T03:06:33;101694.00;;;15.52;36.14
16613;BME280;8419;52.358;9.752;2023-04-10T03:09:18;101694.00;;;15.65;35.87
16613;BME280;8419;52.358;9.752;2023-04-10T03:12:04;101690.00;;;15.58;35.98
16613;BME280;8419;52.358;9.752;2023-04-10T03:14:49;101692.00;;;15.56;36.01
16613;BME280;8419;52.358;9.752;2023-04-10T03:17:35;101693.00;;;15.56;35.98
16613;BME280;8419;52.358;9.752;2023-04-10T03:20:20;101690.00;;;15.52;36.06
16613;BME280;8419;52.358;9.752;2023-04-10T03:23:08;101688.00;;;15.51;36.04
16613;BME280;8419;52.358;9.752;2023-04-10T03:25:53;101683.00;;;15.49;36.07
16613;BME280;8419;52.358;9.752;2023-04-10T03:28:39;101683.00;;;15.48;36.08
16613;BME280;8419;52.358;9.752;2023-04-10T03:31:27;101676.00;;;15.47;36.09
16613;BME280;8419;52.358;9.752;2023-04-10T03:34:12;101669.00;;;15.49;36.04
16613;BME280;8419;52.358;9.752;2023-04-10T03:36:57;101672.00;;;15.48;36.03
16613;BME280;8419;52.358;9.752;2023-04-10T03:39:42;101671.00;;;15.47;36.00
16613;BME280;8419;52.358;9.752;2023-04-10T03:42:28;101674.00;;;15.52;35.92
16613;BME280;8419;52.358;9.752;2023-04-10T03:45:14;101665.00;;;15.53;35.87
16613;BME280;8419;52.358;9.752;2023-04-10T03:47:59;101663.00;;;15.48;35.90
16613;BME280;8419;52.358;9.752;2023-04-10T03:50:45;101660.00;;;15.47;35.93
16613;BME280;8419;52.358;9.752;2023-04-10T03:53:30;101670.00;;;15.49;35.85
16613;BME280;8419;52.358;9.752;2023-04-10T03:56:19;101669.00;;;15.46;35.89
16613;BME280;8419;52.358;9.752;2023-04-10T03:59:05;101665.00;;;15.44;35.89
16613;BME280;8419;52.358;9.752;2023-04-10T04:01:50;101667.00;;;15.38;35.97
16613;BME280;8419;52.358;9.752;2023-04-10T04:04:36;101660.00;;;15.42;35.89
16613;BME280;8419;52.358;9.752;2023-04-10T04:07:22;101654.00;;;15.37;35.98
16613;BME280;8419;52.358;9.752;2023-04-10T04:10:08;101658.00;;;15.39;35.90
16613;BME280;8419;52.358;9.752;2023-04-10T04:12:53;101667.00;;;15.38;35.94
16613;BME280;8419;52.358;9.752;2023-04-10T04:15:41;101669.00;;;15.35;35.98
16613;BME280;8419;52.358;9.752;2023-04-10T04:18:26;101661.00;;;15.28;36.12
16613;BME280;8419;52.358;9.752;2023-04-10T04:21:11;101654.00;;;15.27;36.08
16613;BME280;8419;52.358;9.752;2023-04-10T04:23:58;101653.00;;;15.33;35.97
16613;BME280;8419;52.358;9.752;2023-04-10T04:26:43;101659.00;;;15.33;35.98
16613;BME280;8419;52.358;9.752;2023-04-10T04:29:29;101652.00;;;15.35;35.94
16613;BME280;8419;52.358;9.752;2023-04-10T04:32:15;101650.00;;;15.31;35.99
16613;BME280;8419;52.358;9.752;2023-04-10T04:35:00;101654.00;;;15.32;35.98
16613;BME280;8419;52.358;9.752;2023-04-10T04:37:45;101658.00;;;15.34;35.97
16613;BME280;8419;52.358;9.752;2023-04-10T04:40:31;101659.00;;;15.38;35.90
16613;BME280;8419;52.358;9.752;2023-04-10T04:43:16;101663.00;;;15.40;35.86
16613;BME280;8419;52.358;9.752;2023-04-10T04:46:02;101661.00;;;15.39;35.87
16613;BME280;8419;52.358;9.752;2023-04-10T04:48:47;101662.00;;;15.35;35.94
16613;BME280;8419;52.358;9.752;2023-04-10T04:51:33;101660.00;;;15.34;35.97
16613;BME280;8419;52.358;9.752;2023-04-10T04:54:19;101660.00;;;15.35;35.94
16613;BME280;8419;52.358;9.752;2023-04-10T04:57:06;101668.00;;;15.36;35.94
16613;BME280;8419;52.358;9.752;2023-04-10T04:59:51;101668.00;;;15.36;35.97
16613;BME280;8419;52.358;9.752;2023-04-10T05:02:37;101662.00;;;15.35;35.95
16613;BME280;8419;52.358;9.752;2023-04-10T05:05:23;101662.00;;;15.42;35.83
16613;BME280;8419;52.358;9.752;2023-04-10T05:08:08;101661.00;;;15.35;35.96
16613;BME280;8419;52.358;9.752;2023-04-10T05:10:55;101667.00;;;15.48;35.81
16613;BME280;8419;52.358;9.752;2023-04-10T05:13:40;101664.00;;;15.36;36.02
16613;BME280;8419;52.358;9.752;2023-04-10T05:16:25;101667.00;;;15.55;35.74
16613;BME280;8419;52.358;9.752;2023-04-10T05:19:12;101664.00;;;15.57;35.74
16613;BME280;8419;52.358;9.752;2023-04-10T05:21:57;101665.00;;;15.65;35.64
16613;BME280;8419;52.358;9.752;2023-04-10T05:24:42;101664.00;;;15.72;35.60
16613;BME280;8419;52.358;9.752;2023-04-10T05:27:27;101656.00;;;15.57;35.86
16613;BME280;8419;52.358;9.752;2023-04-10T05:30:13;101657.00;;;15.76;35.59
16613;BME280;8419;52.358;9.752;2023-04-10T05:32:58;101658.00;;;15.67;35.76
16613;BME280;8419;52.358;9.752;2023-04-10T05:35:45;101653.00;;;15.65;35.89
16613;BME280;8419;52.358;9.752;2023-04-10T05:38:30;101651.00;;;15.73;35.86
16613;BME280;8419;52.358;9.752;2023-04-10T05:41:16;101668.00;;;15.79;35.76
16613;BME280;8419;52.358;9.752;2023-04-10T05:44:01;101664.00;;;15.87;35.68
16613;BME280;8419;52.358;9.752;2023-04-10T05:46:46;101659.00;;;15.87;35.72
16613;BME280;8419;52.358;9.752;2023-04-10T05:49:32;101660.00;;;15.94;35.66
16613;BME280;8419;52.358;9.752;2023-04-10T05:52:17;101662.00;;;16.03;35.59
16613;BME280;8419;52.358;9.752;2023-04-10T05:55:04;101667.00;;;16.17;35.40
16613;BME280;8419;52.358;9.752;2023-04-10T05:57:53;101668.00;;;16.27;35.30
16613;BME280;8419;52.358;9.752;2023-04-10T06:00:38;101668.00;;;16.20;35.45
16613;BME280;8419;52.358;9.752;2023-04-10T06:03:23;101665.00;;;16.25;35.42
16613;BME280;8419;52.358;9.752;2023-04-10T06:06:11;101670.00;;;16.28;35.40
16613;BME280;8419;52.358;9.752;2023-04-10T06:08:56;101670.00;;;16.45;35.22
16613;BME280;8419;52.358;9.752;2023-04-10T06:11:41;101661.00;;;16.37;35.34
16613;BME280;8419;52.358;9.752;2023-04-10T06:14:26;101667.00;;;16.37;35.39
16613;BME280;8419;52.358;9.752;2023-04-10T06:17:11;101669.00;;;16.42;35.36
16613;BME280;8419;52.358;9.752;2023-04-10T06:19:57;101668.00;;;16.49;35.25
16613;BME280;8419;52.358;9.752;2023-04-10T06:22:44;101654.00;;;16.53;35.26
16613;BME280;8419;52.358;9.752;2023-04-10T06:25:30;101655.00;;;16.62;35.13
16613;BME280;8419;52.358;9.752;2023-04-10T06:28:15;101649.00;;;16.66;35.11
16613;BME280;8419;52.358;9.752;2023-04-10T06:31:00;101648.00;;;16.75;35.01
16613;BME280;8419;52.358;9.752;2023-04-10T06:33:48;101641.00;;;16.83;34.91
16613;BME280;8419;52.358;9.752;2023-04-10T06:36:33;101640.00;;;16.87;34.88
16613;BME280;8419;52.358;9.752;2023-04-10T06:39:20;101632.00;;;16.94;34.82
16613;BME280;8419;52.358;9.752;2023-04-10T06:42:05;101638.00;;;17.00;34.78
16613;BME280;8419;52.358;9.752;2023-04-10T06:44:51;101629.00;;;17.05;34.75
16613;BME280;8419;52.358;9.752;2023-04-10T06:47:36;101634.00;;;17.14;34.68
16613;BME280;8419;52.358;9.752;2023-04-10T06:50:22;101627.00;;;17.25;34.59
16613;BME280;8419;52.358;9.752;2023-04-10T06:53:07;101625.00;;;17.35;34.53
16613;BME280;8419;52.358;9.752;2023-04-10T06:55:52;101628.00;;;17.50;34.36
16613;BME280;8419;52.358;9.752;2023-04-10T06:58:38;101634.00;;;17.59;34.27
16613;BME280;8419;52.358;9.752;2023-04-10T07:01:25;101637.00;;;17.66;34.28
16613;BME280;8419;52.358;9.752;2023-04-10T07:04:10;101636.00;;;17.81;34.17
16613;BME280;8419;52.358;9.752;2023-04-10T07:06:56;101627.00;;;18.04;33.88
16613;BME280;8419;52.358;9.752;2023-04-10T07:09:41;101621.00;;;18.19;33.71
16613;BME280;8419;52.358;9.752;2023-04-10T07:12:27;101616.00;;;18.15;33.83
16613;BME280;8419;52.358;9.752;2023-04-10T07:15:13;101618.00;;;18.24;33.74
16613;BME280;8419;52.358;9.752;2023-04-10T07:17:58;101614.00;;;18.39;33.55
16613;BME280;8419;52.358;9.752;2023-04-10T07:20:43;101611.00;;;18.56;33.33
16613;BME280;8419;52.358;9.752;2023-04-10T07:23:29;101613.00;;;18.61;33.35
16613;BME280;8419;52.358;9.752;2023-04-10T07:26:14;101610.00;;;18.67;33.33
16613;BME280;8419;52.358;9.752;2023-04-10T07:29:00;101611.00;;;18.74;33.27
16613;BME280;8419;52.358;9.752;2023-04-10T07:31:46;101601.00;;;18.82;33.16
16613;BME280;8419;52.358;9.752;2023-04-10T07:34:31;101600.00;;;18.89;33.09
16613;BME280;8419;52.358;9.752;2023-04-10T07:37:17;101593.00;;;18.96;33.06
16613;BME280;8419;52.358;9.752;2023-04-10T07:40:03;101591.00;;;19.10;32.90
16613;BME280;8419;52.358;9.752;2023-04-10T07:42:49;101598.00;;;19.18;32.85
16613;BME280;8419;52.358;9.752;2023-04-10T07:45:35;101589.00;;;19.08;33.01
16613;BME280;8419;52.358;9.752;2023-04-10T07:48:20;101601.00;;;19.37;32.66
16613;BME280;8419;52.358;9.752;2023-04-10T07:51:06;101597.00;;;19.45;32.59
16613;BME280;8419;52.358;9.752;2023-04-10T07:53:53;101592.00;;;19.53;32.48
16613;BME280;8419;52.358;9.752;2023-04-10T07:56:39;101587.00;;;19.61;32.42
16613;BME280;8419;52.358;9.752;2023-04-10T07:59:25;101592.00;;;19.73;32.29
16613;BME280;8419;52.358;9.752;2023-04-10T08:02:11;101582.00;;;19.84;32.15
16613;BME280;8419;52.358;9.752;2023-04-10T08:04:56;101581.00;;;19.91;32.10
16613;BME280;8419;52.358;9.752;2023-04-10T08:07:42;101580.00;;;19.98;32.05
16613;BME280;8419;52.358;9.752;2023-04-10T08:10:27;101580.00;;;20.08;31.97
16613;BME280;8419;52.358;9.752;2023-04-10T08:13:12;101573.00;;;20.23;31.78
16613;BME280;8419;52.358;9.752;2023-04-10T08:15:58;101577.00;;;20.30;31.72
16613;BME280;8419;52.358;9.752;2023-04-10T08:18:43;101563.00;;;20.39;31.61
16613;BME280;8419;52.358;9.752;2023-04-10T08:21:30;101569.00;;;20.52;31.45
16613;BME280;8419;52.358;9.752;2023-04-10T08:24:16;101557.00;;;20.67;31.29
16613;BME280;8419;52.358;9.752;2023-04-10T08:27:04;101563.00;;;20.78;31.12
16613;BME280;8419;52.358;9.752;2023-04-10T08:29:49;101560.00;;;20.88;31.00
16613;BME280;8419;52.358;9.752;2023-04-10T08:32:35;101556.00;;;20.95;30.92
16613;BME280;8419;52.358;9.752;2023-04-10T08:35:23;101546.00;;;21.02;30.91
16613;BME280;8419;52.358;9.752;2023-04-10T08:38:08;101544.00;;;21.15;30.71
16613;BME280;8419;52.358;9.752;2023-04-10T08:40:55;101548.00;;;21.29;30.38
16613;BME280;8419;52.358;9.752;2023-04-10T08:43:40;101539.00;;;21.49;30.14
16613;BME280;8419;52.358;9.752;2023-04-10T08:46:27;101548.00;;;21.62;29.99
16613;BME280;8419;52.358;9.752;2023-04-10T08:49:20;101541.00;;;21.75;29.85
16613;BME280;8419;52.358;9.752;2023-04-10T08:52:08;101538.00;;;21.78;29.70
16613;BME280;8419;52.358;9.752;2023-04-10T08:55:08;101536.00;;;21.86;29.58
16613;BME280;8419;52.358;9.752;2023-04-10T08:57:53;101531.00;;;21.89;29.56
16613;BME280;8419;52.358;9.752;2023-04-10T09:00:39;101531.00;;;22.00;29.39
16613;BME280;8419;52.358;9.752;2023-04-10T09:03:25;101529.00;;;21.94;29.49
16613;BME280;8419;52.358;9.752;2023-04-10T09:06:11;101532.00;;;21.96;29.47
16613;BME280;8419;52.358;9.752;2023-04-10T09:08:57;101526.00;;;22.05;29.35
16613;BME280;8419;52.358;9.752;2023-04-10T09:11:57;101522.00;;;22.18;29.11
16613;BME280;8419;52.358;9.752;2023-04-10T09:14:44;101520.00;;;22.32;28.78
16613;BME280;8419;52.358;9.752;2023-04-10T09:17:30;101515.00;;;22.37;28.62
16613;BME280;8419;52.358;9.752;2023-04-10T09:20:21;101502.00;;;22.40;28.43
16613;BME280;8419;52.358;9.752;2023-04-10T09:23:19;101501.00;;;22.49;28.29
16613;BME280;8419;52.358;9.752;2023-04-10T09:26:21;101485.00;;;22.54;28.17
16613;BME280;8419;52.358;9.752;2023-04-10T09:29:07;101476.00;;;22.62;27.92
16613;BME280;8419;52.358;9.752;2023-04-10T09:31:55;101471.00;;;22.73;27.71
16613;BME280;8419;52.358;9.752;2023-04-10T09:34:52;101471.00;;;22.80;27.57
16613;BME280;8419;52.358;9.752;2023-04-10T09:37:39;101460.00;;;22.94;27.27
16613;BME280;8419;52.358;9.752;2023-04-10T09:40:25;101458.00;;;22.89;27.21
16613;BME280;8419;52.358;9.752;2023-04-10T09:43:21;101436.00;;;23.01;27.06
16613;BME280;8419;52.358;9.752;2023-04-10T09:46:06;101442.00;;;23.09;26.93
16613;BME280;8419;52.358;9.752;2023-04-10T09:48:54;101440.00;;;23.14;26.79
16613;BME280;8419;52.358;9.752;2023-04-10T09:51:41;101427.00;;;23.25;26.70
16613;BME280;8419;52.358;9.752;2023-04-10T09:54:35;101434.00;;;23.26;26.65
16613;BME280;8419;52.358;9.752;2023-04-10T09:57:23;101427.00;;;23.42;26.54
16613;BME280;8419;52.358;9.752;2023-04-10T10:00:11;101419.00;;;23.53;26.48
16613;BME280;8419;52.358;9.752;2023-04-10T10:02:58;101408.00;;;23.64;26.41
16613;BME280;8419;52.358;9.752;2023-04-10T10:05:47;101408.00;;;23.75;26.21
16613;BME280;8419;52.358;9.752;2023-04-10T10:08:34;101407.00;;;23.90;26.01
16613;BME280;8419;52.358;9.752;2023-04-10T10:11:22;101401.00;;;24.00;25.82
16613;BME280;8419;52.358;9.752;2023-04-10T10:14:14;101393.00;;;24.09;25.78
16613;BME280;8419;52.358;9.752;2023-04-10T10:17:01;101384.00;;;24.19;25.54
16613;BME280;8419;52.358;9.752;2023-04-10T10:19:55;101383.00;;;24.34;25.49
16613;BME280;8419;52.358;9.752;2023-04-10T10:22:44;101373.00;;;24.49;25.34
16613;BME280;8419;52.358;9.752;2023-04-10T10:25:30;101372.00;;;24.60;25.04
16613;BME280;8419;52.358;9.752;2023-04-10T10:28:19;101365.00;;;24.43;25.12
16613;BME280;8419;52.358;9.752;2023-04-10T10:31:05;101370.00;;;24.46;25.03
16613;BME280;8419;52.358;9.752;2023-04-10T10:33:52;101355.00;;;24.54;24.88
16613;BME280;8419;52.358;9.752;2023-04-10T10:36:39;101360.00;;;24.61;24.57
16613;BME280;8419;52.358;9.752;2023-04-10T10:39:31;101346.00;;;24.65;24.40
16613;BME280;8419;52.358;9.752;2023-04-10T10:42:24;101352.00;;;24.72;24.31
16613;BME280;8419;52.358;9.752;2023-04-10T10:45:14;101334.00;;;24.79;24.16
16613;BME280;8419;52.358;9.752;2023-04-10T10:48:01;101328.00;;;25.17;23.82
16613;BME280;8419;52.358;9.752;2023-04-10T10:50:51;101340.00;;;25.29;23.69
16613;BME280;8419;52.358;9.752;2023-04-10T10:53:39;101319.00;;;25.41;23.55
16613;BME280;8419;52.358;9.752;2023-04-10T10:56:35;101319.00;;;25.59;23.30
16613;BME280;8419;52.358;9.752;2023-04-10T10:59:53;101306.00;;;25.70;23.17
16613;BME280;8419;52.358;9.752;2023-04-10T11:02:39;101309.00;;;25.95;23.04
16613;BME280;8419;52.358;9.752;2023-04-10T11:05:50;101289.00;;;26.04;22.90
16613;BME280;8419;52.358;9.752;2023-04-10T11:08:38;101290.00;;;26.24;22.71
16613;BME280;8419;52.358;9.752;2023-04-10T11:11:26;101282.00;;;26.29;22.64
16613;BME280;8419;52.358;9.752;2023-04-10T11:14:13;101291.00;;;26.41;22.56
16613;BME280;8419;52.358;9.752;2023-04-10T11:17:01;101274.00;;;26.40;22.47
16613;BME280;8419;52.358;9.752;2023-04-10T11:19:58;101260.00;;;26.46;22.45
16613;BME280;8419;52.358;9.752;2023-04-10T11:23:06;101259.00;;;26.67;22.32
16613;BME280;8419;52.358;9.752;2023-04-10T11:25:52;101253.00;;;26.87;22.14
16613;BME280;8419;52.358;9.752;2023-04-10T11:28:38;101242.00;;;26.92;22.04
16613;BME280;8419;52.358;9.752;2023-04-10T11:31:25;101234.00;;;27.01;22.03
16613;BME280;8419;52.358;9.752;2023-04-10T11:34:10;101230.00;;;27.13;21.96
16613;BME280;8419;52.358;9.752;2023-04-10T11:36:56;101222.00;;;27.30;21.75
16613;BME280;8419;52.358;9.752;2023-04-10T11:39:41;101216.00;;;27.48;21.64
16613;BME280;8419;52.358;9.752;2023-04-10T11:42:26;101212.00;;;27.71;21.42
16613;BME280;8419;52.358;9.752;2023-04-10T11:45:28;101198.00;;;27.96;21.21
16613;BME280;8419;52.358;9.752;2023-04-10T11:48:14;101198.00;;;28.28;21.09
16613;BME280;8419;52.358;9.752;2023-04-10T11:51:07;101185.00;;;28.46;20.87
16613;BME280;8419;52.358;9.752;2023-04-10T11:54:05;101180.00;;;28.73;20.68
16613;BME280;8419;52.358;9.752;2023-04-10T11:56:59;101177.00;;;29.07;20.48
16613;BME280;8419;52.358;9.752;2023-04-10T11:59:49;101178.00;;;29.40;20.13
16613;BME280;8419;52.358;9.752;2023-04-10T12:02:35;101168.00;;;29.70;19.92
16613;BME280;8419;52.358;9.752;2023-04-10T12:05:45;101172.00;;;29.82;19.87
16613;BME280;8419;52.358;9.752;2023-04-10T12:08:31;101170.00;;;30.20;19.57
16613;BME280;8419;52.358;9.752;2023-04-10T12:11:18;101171.00;;;30.27;19.22
16613;BME280;8419;52.358;9.752;2023-04-10T12:14:04;101161.00;;;30.41;19.09
16613;BME280;8419;52.358;9.752;2023-04-10T12:16:50;101151.00;;;30.57;18.83
16613;BME280;8419;52.358;9.752;2023-04-10T12:19:37;101148.00;;;30.76;18.53
16613;BME280;8419;52.358;9.752;2023-04-10T12:22:23;101138.00;;;31.03;18.31
16613;BME280;8419;52.358;9.752;2023-04-10T12:25:11;101139.00;;;31.29;17.99
16613;BME280;8419;52.358;9.752;2023-04-10T12:27:57;101136.00;;;31.41;17.83
16613;BME280;8419;52.358;9.752;2023-04-10T12:30:46;101129.00;;;31.64;17.58
16613;BME280;8419;52.358;9.752;2023-04-10T12:33:32;101126.00;;;31.89;17.33
16613;BME280;8419;52.358;9.752;2023-04-10T12:36:20;101127.00;;;31.88;17.24
16613;BME280;8419;52.358;9.752;2023-04-10T12:39:21;101115.00;;;31.94;17.20
16613;BME280;8419;52.358;9.752;2023-04-10T12:42:11;101120.00;;;32.00;16.99
16613;BME280;8419;52.358;9.752;2023-04-10T12:44:58;101112.00;;;31.73;17.06
16613;BME280;8419;52.358;9.752;2023-04-10T12:47:46;101111.00;;;31.65;17.05
16613;BME280;8419;52.358;9.752;2023-04-10T12:50:32;101103.00;;;31.60;17.02
16613;BME280;8419;52.358;9.752;2023-04-10T12:53:18;101103.00;;;31.60;17.05
16613;BME280;8419;52.358;9.752;2023-04-10T12:56:07;101099.00;;;31.48;16.93
16613;BME280;8419;52.358;9.752;2023-04-10T12:59:05;101107.00;;;31.48;16.98
16613;BME280;8419;52.358;9.752;2023-04-10T13:01:51;101094.00;;;31.65;16.84
16613;BME280;8419;52.358;9.752;2023-04-10T13:04:36;101104.00;;;31.41;16.82
16613;BME280;8419;52.358;9.752;2023-04-10T13:07:22;101084.00;;;31.29;16.83
16613;BME280;8419;52.358;9.752;2023-04-10T13:10:08;101082.00;;;31.12;17.03
16613;BME280;8419;52.358;9.752;2023-04-10T13:12:55;101084.00;;;31.00;17.10
16613;BME280;8419;52.358;9.752;2023-04-10T13:15:40;101062.00;;;30.75;17.30
16613;BME280;8419;52.358;9.752;2023-04-10T13:18:25;101063.00;;;30.44;17.34
16613;BME280;8419;52.358;9.752;2023-04-10T13:21:11;101061.00;;;30.17;17.43
16613;BME280;8419;52.358;9.752;2023-04-10T13:24:02;101051.00;;;30.18;17.41
16613;BME280;8419;52.358;9.752;2023-04-10T13:26:47;101047.00;;;30.30;17.27
16613;BME280;8419;52.358;9.752;2023-04-10T13:29:33;101047.00;;;30.41;17.21
16613;BME280;8419;52.358;9.752;2023-04-10T13:32:18;101031.00;;;30.57;17.13
16613;BME280;8419;52.358;9.752;2023-04-10T13:35:05;101033.00;;;30.55;17.09
16613;BME280;8419;52.358;9.752;2023-04-10T13:37:51;101033.00;;;30.69;17.06
16613;BME280;8419;52.358;9.752;2023-04-10T13:40:37;101032.00;;;30.86;16.83
16613;BME280;8419;52.358;9.752;2023-04-10T13:43:23;101011.00;;;30.95;16.67
16613;BME280;8419;52.358;9.752;2023-04-10T13:46:09;101015.00;;;31.50;16.37
16613;BME280;8419;52.358;9.752;2023-04-10T13:48:54;101006.00;;;31.99;15.95
16613;BME280;8419;52.358;9.752;2023-04-10T13:51:40;100992.00;;;31.96;15.87
16613;BME280;8419;52.358;9.752;2023-04-10T13:54:25;100977.00;;;31.95;15.81
16613;BME280;8419;52.358;9.752;2023-04-10T13:57:11;100966.00;;;31.90;15.77
16613;BME280;8419;52.358;9.752;2023-04-10T13:59:56;100977.00;;;31.93;15.85
16613;BME280;8419;52.358;9.752;2023-04-10T14:02:42;100967.00;;;32.03;16.05
16613;BME280;8419;52.358;9.752;2023-04-10T14:05:27;100956.00;;;32.10;16.04
16613;BME280;8419;52.358;9.752;2023-04-10T14:08:13;100951.00;;;31.97;16.10
16613;BME280;8419;52.358;9.752;2023-04-10T14:11:00;100940.00;;;31.70;16.12
16613;BME280;8419;52.358;9.752;2023-04-10T14:13:45;100922.00;;;31.40;16.24
16613;BME280;8419;52.358;9.752;2023-04-10T14:16:31;100939.00;;;30.96;16.41
16613;BME280;8419;52.358;9.752;2023-04-10T14:19:16;100935.00;;;31.10;16.24
16613;BME280;8419;52.358;9.752;2023-04-10T14:22:01;100917.00;;;31.37;16.13
16613;BME280;8419;52.358;9.752;2023-04-10T14:24:47;100920.00;;;31.24;16.08
16613;BME280;8419;52.358;9.752;2023-04-10T14:27:33;100916.00;;;30.87;16.31
16613;BME280;8419;52.358;9.752;2023-04-10T14:30:18;100907.00;;;30.50;16.47
16613;BME280;8419;52.358;9.752;2023-04-10T14:33:03;100892.00;;;30.27;16.59
16613;BME280;8419;52.358;9.752;2023-04-10T14:35:49;100885.00;;;29.95;16.76
16613;BME280;8419;52.358;9.752;2023-04-10T14:38:34;100883.00;;;29.87;16.78
16613;BME280;8419;52.358;9.752;2023-04-10T14:41:21;100866.00;;;29.70;16.97
16613;BME280;8419;52.358;9.752;2023-04-10T14:44:06;100863.00;;;29.80;16.89
16613;BME280;8419;52.358;9.752;2023-04-10T14:46:51;100864.00;;;29.77;16.89